Terminal Aerodrome Forecast
Issued by NWS Memphis, TN

Home | Current Version | Previous Version | Text Only | Print | Product List | Glossary On
Versions: 1 2 3 4 5 6 7 8 9 10 11 12 13 14 15 16 17 18 19 20 21 22 23 24 25
434
FTUS44 KMEG 222326
TAFMEM
TAF
KMEM 222326Z 2300/2324 05010KT P6SM BKN060
     FM231000 09004KT P6SM BKN090
     FM231400 14006KT P6SM SCT040 BKN250=

USA.gov is the U.S. government's official web portal to all federal, state and local government web resources and services.